Time;durP1;ratioP1;P1;durP2;ratioP2;P2;SDS_P1;SDS_P2;PMS_P1;PMS_P2;Temp;Humidity;BMP_temperature;BMP_pressure;BME280_temperature;BME280_humidity;BME280_pressure;Samples;Min_cycle;Max_cycle;Signal;HPM_P1;HPM_P2
2021/06/03 00:02:27;;;;;;;14.60;8.70;;;;;;;;;;5010664;28;20137;-60
2021/06/03 00:04:55;;;;;;;15.88;8.88;;;;;;;;;;5010478;28;20092;-60
2021/06/03 00:07:23;;;;;;;11.82;8.30;;;;;;;;;;5010717;28;20559;-60
2021/06/03 00:09:50;;;;;;;14.40;8.32;;;;;;;;;;5010882;28;20046;-60
2021/06/03 00:12:18;;;;;;;13.77;8.30;;;;;;;;;;5010551;28;20108;-60
2021/06/03 00:14:46;;;;;;;12.80;8.43;;;;;;;;;;5011111;28;20053;-60
2021/06/03 00:17:14;;;;;;;12.65;8.75;;;;;;;;;;5010361;28;20065;-60
2021/06/03 00:19:43;;;;;;;16.42;8.98;;;;;;;;;;5010884;28;20053;-60
2021/06/03 00:22:11;;;;;;;14.55;8.77;;;;;;;;;;5010811;28;20129;-60
2021/06/03 00:24:39;;;;;;;17.88;9.82;;;;;;;;;;5010636;28;20137;-60
2021/06/03 00:27:06;;;;;;;12.50;8.30;;;;;;;;;;5009840;28;20072;-60
2021/06/03 00:29:34;;;;;;;13.25;8.75;;;;;;;;;;5010385;28;20536;-60
2021/06/03 00:32:02;;;;;;;13.57;8.98;;;;;;;;;;5010517;28;20776;-60
2021/06/03 00:34:30;;;;;;;16.65;9.05;;;;;;;;;;5010136;28;20502;-60
2021/06/03 00:36:59;;;;;;;13.15;8.63;;;;;;;;;;5009679;28;20458;-60
2021/06/03 00:39:27;;;;;;;12.73;8.60;;;;;;;;;;5010317;28;20049;-60
2021/06/03 00:41:55;;;;;;;11.98;8.40;;;;;;;;;;5007273;28;20494;-60
2021/06/03 00:44:22;;;;;;;13.40;8.20;;;;;;;;;;5010119;28;20049;-60
2021/06/03 00:46:50;;;;;;;11.63;7.88;;;;;;;;;;5009965;28;20042;-60
2021/06/03 00:49:18;;;;;;;13.88;8.63;;;;;;;;;;5009743;28;20065;-60
2021/06/03 00:51:46;;;;;;;15.05;9.02;;;;;;;;;;4995304;28;20133;-60
2021/06/03 00:54:15;;;;;;;13.27;9.38;;;;;;;;;;4992604;28;20458;-60
2021/06/03 00:56:43;;;;;;;14.88;8.57;;;;;;;;;;5010094;28;20045;-60
2021/06/03 00:59:11;;;;;;;14.95;8.85;;;;;;;;;;5009334;28;20052;-60
2021/06/03 01:04:19;;;;;;;13.75;8.80;;;;;;;;;;5029300;28;20050;-64
2021/06/03 01:06:47;;;;;;;13.10;8.93;;;;;;;;;;5029876;28;20053;-64
2021/06/03 01:09:20;;;;;;;14.43;8.55;;;;;;;;;;5030129;28;20041;-64
2021/06/03 01:11:50;;;;;;;15.40;9.00;;;;;;;;;;5030650;28;20056;-64
2021/06/03 01:14:20;;;;;;;14.02;8.98;;;;;;;;;;5029773;28;20057;-64
2021/06/03 01:16:49;;;;;;;13.55;8.45;;;;;;;;;;5029602;28;20128;-64
2021/06/03 01:19:18;;;;;;;15.60;8.80;;;;;;;;;;5029778;28;20077;-64
2021/06/03 01:21:48;;;;;;;11.73;7.63;;;;;;;;;;5030037;28;20568;-64
2021/06/03 01:24:23;;;;;;;12.68;8.38;;;;;;;;;;5029934;28;20128;-64
2021/06/03 01:26:53;;;;;;;16.40;8.23;;;;;;;;;;5029640;28;20083;-64
2021/06/03 01:29:21;;;;;;;10.65;7.68;;;;;;;;;;5030245;28;20124;-64
2021/06/03 01:31:50;;;;;;;12.68;8.60;;;;;;;;;;5029914;28;20500;-64
2021/06/03 01:34:19;;;;;;;12.82;8.40;;;;;;;;;;5029751;28;20517;-63
2021/06/03 01:36:47;;;;;;;14.43;9.25;;;;;;;;;;5029671;28;20041;-63
2021/06/03 01:39:14;;;;;;;15.45;9.52;;;;;;;;;;5030583;28;20052;-63
2021/06/03 01:41:44;;;;;;;14.70;8.93;;;;;;;;;;5048731;28;20143;-64
2021/06/03 01:44:12;;;;;;;12.82;8.75;;;;;;;;;;5054276;28;20148;-64
2021/06/03 01:46:40;;;;;;;13.52;8.35;;;;;;;;;;5053797;28;20037;-64
2021/06/03 01:49:08;;;;;;;15.93;9.15;;;;;;;;;;5034223;28;20056;-64
2021/06/03 01:51:36;;;;;;;13.85;8.60;;;;;;;;;;5048101;28;20057;-64
2021/06/03 01:54:04;;;;;;;16.48;9.02;;;;;;;;;;5052773;28;20144;-64
2021/06/03 01:56:31;;;;;;;13.95;9.43;;;;;;;;;;5033262;28;20111;-64
2021/06/03 01:59:00;;;;;;;13.35;8.90;;;;;;;;;;5034342;28;20137;-64
2021/06/03 02:01:30;;;;;;;14.90;9.48;;;;;;;;;;5034664;28;20088;-64
2021/06/03 02:03:58;;;;;;;16.02;9.43;;;;;;;;;;5035557;28;20063;-64
2021/06/03 02:06:26;;;;;;;14.43;9.63;;;;;;;;;;5033858;28;20096;-64
2021/06/03 02:08:54;;;;;;;14.05;9.15;;;;;;;;;;5033907;28;20056;-64
2021/06/03 02:11:23;;;;;;;18.33;9.90;;;;;;;;;;5033390;28;20045;-65
2021/06/03 02:13:52;;;;;;;15.00;8.68;;;;;;;;;;5033803;28;20049;-64
2021/06/03 02:16:24;;;;;;;15.07;8.68;;;;;;;;;;5032734;28;20049;-64
2021/06/03 02:18:54;;;;;;;14.15;9.10;;;;;;;;;;5033667;28;20377;-64
2021/06/03 02:21:22;;;;;;;14.13;8.13;;;;;;;;;;5033689;28;20140;-64
2021/06/03 02:23:50;;;;;;;15.27;8.38;;;;;;;;;;5033689;28;20084;-64
2021/06/03 02:26:18;;;;;;;12.95;8.73;;;;;;;;;;5032793;28;20049;-64
2021/06/03 02:28:47;;;;;;;11.30;8.13;;;;;;;;;;5033081;28;20088;-64
2021/06/03 02:31:15;;;;;;;13.77;8.45;;;;;;;;;;5033613;28;20060;-63
2021/06/03 02:33:45;;;;;;;11.30;7.65;;;;;;;;;;5033261;28;20045;-64
2021/06/03 02:36:12;;;;;;;10.65;7.72;;;;;;;;;;5032887;28;20057;-63
2021/06/03 02:38:41;;;;;;;13.60;8.02;;;;;;;;;;5033297;28;20051;-63
2021/06/03 02:41:10;;;;;;;13.40;7.60;;;;;;;;;;5043326;28;20128;-63
2021/06/03 02:43:42;;;;;;;15.43;8.68;;;;;;;;;;5036751;28;20053;-63
2021/06/03 02:46:10;;;;;;;14.00;8.75;;;;;;;;;;5032378;28;20136;-63
2021/06/03 02:48:38;;;;;;;11.90;9.15;;;;;;;;;;5032962;28;20096;-63
2021/06/03 02:51:07;;;;;;;13.90;7.70;;;;;;;;;;5023085;28;20050;-63
2021/06/03 02:53:35;;;;;;;12.70;8.27;;;;;;;;;;5012735;28;20136;-63
2021/06/03 02:56:02;;;;;;;10.27;7.78;;;;;;;;;;5030043;28;20501;-63
2021/06/03 02:58:30;;;;;;;9.77;7.35;;;;;;;;;;5032290;28;20421;-63
2021/06/03 03:00:58;;;;;;;11.68;7.82;;;;;;;;;;5032388;28;20466;-63
2021/06/03 03:03:26;;;;;;;11.23;8.63;;;;;;;;;;5032102;28;20046;-63
2021/06/03 03:05:54;;;;;;;15.32;7.55;;;;;;;;;;5032434;28;20136;-63
2021/06/03 03:08:23;;;;;;;11.23;7.70;;;;;;;;;;5031788;28;20053;-63
2021/06/03 03:10:52;;;;;;;13.60;7.53;;;;;;;;;;5032501;28;20128;-63
2021/06/03 03:13:20;;;;;;;9.90;7.50;;;;;;;;;;5032428;28;20130;-63
2021/06/03 03:15:49;;;;;;;10.95;7.70;;;;;;;;;;5032543;28;20054;-63
2021/06/03 03:18:17;;;;;;;13.02;8.38;;;;;;;;;;5032031;28;20056;-63
2021/06/03 03:20:45;;;;;;;11.35;7.65;;;;;;;;;;5031878;28;20050;-63
2021/06/03 03:23:13;;;;;;;13.38;7.78;;;;;;;;;;5032503;28;20045;-63
2021/06/03 03:25:42;;;;;;;10.48;7.32;;;;;;;;;;5032363;28;20132;-63
2021/06/03 03:28:10;;;;;;;12.65;7.93;;;;;;;;;;5032206;28;20056;-63
2021/06/03 03:30:41;;;;;;;10.25;6.90;;;;;;;;;;5031990;28;20051;-63
2021/06/03 03:33:10;;;;;;;13.05;7.43;;;;;;;;;;5032153;28;20535;-63
2021/06/03 03:35:38;;;;;;;12.80;7.25;;;;;;;;;;5031911;28;20049;-63
2021/06/03 03:38:06;;;;;;;12.20;7.30;;;;;;;;;;5031332;28;20472;-63
2021/06/03 03:40:34;;;;;;;11.90;7.22;;;;;;;;;;5031835;28;20049;-63
2021/06/03 03:43:03;;;;;;;12.13;7.25;;;;;;;;;;5032022;28;20195;-63
2021/06/03 03:45:32;;;;;;;13.77;7.70;;;;;;;;;;5031739;28;20052;-64
2021/06/03 03:48:01;;;;;;;12.27;7.25;;;;;;;;;;5031204;28;20489;-64
2021/06/03 03:50:29;;;;;;;11.93;7.18;;;;;;;;;;5036470;28;20073;-63
2021/06/03 03:52:57;;;;;;;11.88;7.10;;;;;;;;;;5051779;28;20071;-64
2021/06/03 03:55:25;;;;;;;11.25;6.78;;;;;;;;;;5039068;28;20053;-64
2021/06/03 03:57:53;;;;;;;10.23;6.80;;;;;;;;;;5031114;28;20045;-64
2021/06/03 04:00:24;;;;;;;10.90;7.13;;;;;;;;;;5031753;28;20092;-64
2021/06/03 04:02:52;;;;;;;9.88;7.13;;;;;;;;;;5030617;28;20132;-64
2021/06/03 04:05:20;;;;;;;10.77;6.82;;;;;;;;;;5031338;28;20067;-64
2021/06/03 04:07:48;;;;;;;13.75;7.72;;;;;;;;;;5030826;28;20049;-64
2021/06/03 04:10:17;;;;;;;10.68;7.13;;;;;;;;;;5031558;28;20052;-64
2021/06/03 04:12:46;;;;;;;9.50;6.20;;;;;;;;;;5031777;28;20132;-63
2021/06/03 04:15:15;;;;;;;10.05;6.10;;;;;;;;;;5031456;28;20049;-64
2021/06/03 04:17:44;;;;;;;13.45;6.68;;;;;;;;;;5032212;28;20571;-63
2021/06/03 04:20:13;;;;;;;11.73;6.43;;;;;;;;;;5031596;28;20095;-64
2021/06/03 04:22:41;;;;;;;11.02;6.68;;;;;;;;;;5031389;28;20041;-63
2021/06/03 04:25:09;;;;;;;10.52;6.82;;;;;;;;;;5031332;28;20137;-63
2021/06/03 04:27:37;;;;;;;10.25;6.88;;;;;;;;;;5030453;28;20052;-63
2021/06/03 04:30:06;;;;;;;11.52;7.00;;;;;;;;;;5030660;28;20488;-63
2021/06/03 04:32:34;;;;;;;11.10;6.70;;;;;;;;;;5030770;28;20444;-64
2021/06/03 04:35:04;;;;;;;11.43;6.32;;;;;;;;;;5031226;28;20478;-64
2021/06/03 04:37:32;;;;;;;13.43;6.18;;;;;;;;;;5031155;28;20049;-64
2021/06/03 04:40:00;;;;;;;10.23;6.57;;;;;;;;;;5032548;28;20136;-64
2021/06/03 04:42:28;;;;;;;10.15;6.60;;;;;;;;;;5050855;28;20055;-64
2021/06/03 04:44:55;;;;;;;12.75;6.60;;;;;;;;;;5050775;28;20156;-64
2021/06/03 04:47:23;;;;;;;10.48;6.57;;;;;;;;;;5049895;28;20052;-64
2021/06/03 04:49:51;;;;;;;9.65;6.13;;;;;;;;;;5042956;28;20152;-64
2021/06/03 04:52:27;;;;;;;11.13;6.90;;;;;;;;;;5049519;28;20397;-63
2021/06/03 04:54:55;;;;;;;9.93;6.53;;;;;;;;;;5039998;28;20485;-64
2021/06/03 04:57:23;;;;;;;8.93;5.97;;;;;;;;;;5029861;28;20161;-63
2021/06/03 04:59:51;;;;;;;11.38;6.53;;;;;;;;;;5030282;28;20055;-63
2021/06/03 05:02:20;;;;;;;10.95;6.53;;;;;;;;;;5030233;28;20077;-63
2021/06/03 05:04:48;;;;;;;12.00;5.85;;;;;;;;;;5030030;28;20396;-63
2021/06/03 05:07:16;;;;;;;12.77;6.97;;;;;;;;;;5029607;28;20053;-63
2021/06/03 05:09:46;;;;;;;10.98;6.72;;;;;;;;;;5029889;28;20580;-64
2021/06/03 05:12:14;;;;;;;9.25;7.10;;;;;;;;;;5029765;28;20501;-64
2021/06/03 05:14:42;;;;;;;10.85;7.03;;;;;;;;;;5029680;28;20436;-64
2021/06/03 05:17:11;;;;;;;22.92;7.35;;;;;;;;;;5030040;28;20462;-64
2021/06/03 05:19:39;;;;;;;11.27;6.90;;;;;;;;;;5029725;28;20107;-64
2021/06/03 05:22:07;;;;;;;12.27;7.32;;;;;;;;;;5030194;28;20091;-64
2021/06/03 05:24:35;;;;;;;12.98;7.38;;;;;;;;;;5029901;28;20491;-64
2021/06/03 05:27:05;;;;;;;10.93;7.32;;;;;;;;;;5029300;28;20215;-64
2021/06/03 05:29:33;;;;;;;9.73;6.38;;;;;;;;;;5030013;28;20096;-64
2021/06/03 05:32:01;;;;;;;8.40;6.40;;;;;;;;;;5029960;28;20048;-64
2021/06/03 05:34:29;;;;;;;10.18;6.15;;;;;;;;;;5029736;28;20050;-64
2021/06/03 05:36:58;;;;;;;10.98;6.85;;;;;;;;;;5029439;28;20128;-63
2021/06/03 05:39:25;;;;;;;10.88;6.43;;;;;;;;;;5029706;28;20059;-63
2021/06/03 05:41:53;;;;;;;9.18;5.97;;;;;;;;;;5046164;28;20049;-63
2021/06/03 05:44:22;;;;;;;8.07;5.47;;;;;;;;;;5049629;28;20057;-63
2021/06/03 05:46:50;;;;;;;9.73;5.70;;;;;;;;;;5031562;28;20069;-63
2021/06/03 05:49:18;;;;;;;10.80;5.65;;;;;;;;;;5029770;28;20398;-64
2021/06/03 05:51:45;;;;;;;11.02;5.75;;;;;;;;;;5029487;28;20065;-64
2021/06/03 05:54:13;;;;;;;7.43;5.43;;;;;;;;;;5029649;28;20072;-64
2021/06/03 05:56:41;;;;;;;11.90;5.75;;;;;;;;;;5029092;28;20052;-63
2021/06/03 05:59:09;;;;;;;9.52;5.45;;;;;;;;;;5029790;28;20050;-63
2021/06/03 06:01:38;;;;;;;8.88;5.38;;;;;;;;;;5029514;28;20064;-64
2021/06/03 06:07:00;;;;;;;8.70;4.75;;;;;;;;;;5028466;28;20052;-63
2021/06/03 06:09:28;;;;;;;5.72;4.40;;;;;;;;;;5029649;28;20077;-63
2021/06/03 06:11:56;;;;;;;5.28;4.78;;;;;;;;;;5029480;28;20053;-64
2021/06/03 06:14:24;;;;;;;6.40;4.75;;;;;;;;;;5029840;28;20081;-64
2021/06/03 06:16:53;;;;;;;8.70;4.88;;;;;;;;;;5029352;28;20432;-64
2021/06/03 06:19:21;;;;;;;5.45;4.10;;;;;;;;;;5029695;28;20464;-64
2021/06/03 06:21:51;;;;;;;7.72;4.30;;;;;;;;;;5029570;28;20103;-64
2021/06/03 06:24:19;;;;;;;5.63;4.38;;;;;;;;;;5029992;28;20056;-62
2021/06/03 06:26:47;;;;;;;5.93;4.15;;;;;;;;;;5031864;28;20067;-64
2021/06/03 06:29:15;;;;;;;4.90;3.75;;;;;;;;;;5033076;28;20092;-63
2021/06/03 06:31:43;;;;;;;7.82;4.38;;;;;;;;;;5033435;28;20408;-63
2021/06/03 06:34:12;;;;;;;5.38;4.32;;;;;;;;;;5034141;28;20085;-63
2021/06/03 06:36:40;;;;;;;7.95;4.07;;;;;;;;;;5033917;28;20524;-63
2021/06/03 06:39:08;;;;;;;8.05;3.70;;;;;;;;;;5034419;28;20440;-63
2021/06/03 06:41:40;;;;;;;6.10;3.70;;;;;;;;;;5034084;28;20531;-63
2021/06/03 06:44:08;;;;;;;7.38;4.00;;;;;;;;;;5034570;28;20568;-63
2021/06/03 06:46:36;;;;;;;4.72;3.88;;;;;;;;;;5033708;28;20404;-63
2021/06/03 06:49:04;;;;;;;8.15;3.53;;;;;;;;;;5034195;28;20045;-63
2021/06/03 06:51:33;;;;;;;5.90;4.15;;;;;;;;;;5032710;28;20053;-63
2021/06/03 06:54:01;;;;;;;5.97;3.42;;;;;;;;;;5033796;28;20365;-63
2021/06/03 06:56:29;;;;;;;5.20;3.67;;;;;;;;;;5033281;28;20128;-64
2021/06/03 06:58:57;;;;;;;4.45;3.80;;;;;;;;;;5033471;28;20501;-64
2021/06/03 07:01:25;;;;;;;5.80;3.67;;;;;;;;;;5033616;28;20137;-64
2021/06/03 07:03:52;;;;;;;6.05;3.75;;;;;;;;;;5033623;28;20051;-64
2021/06/03 07:06:20;;;;;;;5.32;3.45;;;;;;;;;;5033320;28;20050;-64
2021/06/03 07:08:49;;;;;;;4.85;3.72;;;;;;;;;;5033701;28;20081;-64
2021/06/03 07:11:17;;;;;;;6.50;3.70;;;;;;;;;;5033610;28;20049;-63
2021/06/03 07:13:45;;;;;;;4.95;3.55;;;;;;;;;;5032930;28;20076;-64
2021/06/03 07:16:13;;;;;;;5.85;3.97;;;;;;;;;;5033279;28;20091;-64
2021/06/03 07:18:41;;;;;;;4.70;3.90;;;;;;;;;;5033129;28;20049;-64
2021/06/03 07:21:08;;;;;;;3.40;2.92;;;;;;;;;;5033475;28;20124;-64
2021/06/03 07:23:36;;;;;;;3.83;3.13;;;;;;;;;;5033033;28;20081;-64
2021/06/03 07:26:05;;;;;;;6.43;4.03;;;;;;;;;;5033537;28;20297;-63
2021/06/03 07:28:33;;;;;;;10.57;4.05;;;;;;;;;;5032336;28;20148;-64
2021/06/03 07:31:01;;;;;;;4.65;3.55;;;;;;;;;;5032681;28;20065;-64
2021/06/03 07:33:29;;;;;;;4.18;3.40;;;;;;;;;;5032125;28;20507;-63
2021/06/03 07:35:57;;;;;;;6.07;3.60;;;;;;;;;;5032159;28;20132;-64
2021/06/03 07:38:25;;;;;;;5.15;3.60;;;;;;;;;;5030396;28;20084;-64
2021/06/03 07:40:53;;;;;;;5.65;3.33;;;;;;;;;;5039555;28;20076;-63
2021/06/03 07:43:22;;;;;;;4.43;3.75;;;;;;;;;;5051981;28;20103;-64
2021/06/03 07:45:50;;;;;;;3.75;3.20;;;;;;;;;;5034390;28;20132;-63
2021/06/03 07:48:17;;;;;;;7.07;3.17;;;;;;;;;;5031235;28;20554;-63
2021/06/03 07:50:45;;;;;;;5.68;3.67;;;;;;;;;;5038490;28;20361;-63
2021/06/03 07:53:13;;;;;;;4.30;3.33;;;;;;;;;;5051591;28;20080;-63
2021/06/03 07:55:41;;;;;;;7.10;3.80;;;;;;;;;;5037265;28;20572;-63
2021/06/03 07:58:10;;;;;;;5.28;3.40;;;;;;;;;;5031225;28;20442;-63
2021/06/03 08:00:42;;;;;;;4.10;3.67;;;;;;;;;;5031634;28;20053;-63
2021/06/03 08:03:10;;;;;;;4.35;3.75;;;;;;;;;;5031157;28;20107;-63
2021/06/03 08:05:38;;;;;;;6.05;3.50;;;;;;;;;;5031028;28;20576;-63
2021/06/03 08:08:06;;;;;;;7.88;3.70;;;;;;;;;;5030751;28;20077;-63
2021/06/03 08:10:35;;;;;;;4.47;3.92;;;;;;;;;;5030833;28;20091;-63
2021/06/03 08:13:04;;;;;;;3.80;3.40;;;;;;;;;;5031186;28;20576;-63
2021/06/03 08:15:32;;;;;;;4.78;3.55;;;;;;;;;;5031302;28;20088;-63
2021/06/03 08:18:02;;;;;;;4.47;4.07;;;;;;;;;;5030445;28;20045;-63
2021/06/03 08:20:33;;;;;;;4.72;3.40;;;;;;;;;;5031023;28;20061;-63
2021/06/03 08:23:01;;;;;;;4.30;3.70;;;;;;;;;;5031411;28;20049;-63
2021/06/03 08:25:29;;;;;;;6.80;3.60;;;;;;;;;;5031019;28;20127;-64
2021/06/03 08:27:57;;;;;;;4.47;3.25;;;;;;;;;;5030846;28;20527;-63
2021/06/03 08:30:25;;;;;;;5.82;2.90;;;;;;;;;;5031408;28;20049;-64
2021/06/03 08:32:53;;;;;;;4.25;3.28;;;;;;;;;;5031525;28;20136;-63
2021/06/03 08:35:22;;;;;;;4.22;3.83;;;;;;;;;;5030841;28;20456;-64
2021/06/03 08:37:51;;;;;;;7.80;4.18;;;;;;;;;;5030664;28;20050;-64
2021/06/03 08:40:21;;;;;;;6.63;3.83;;;;;;;;;;5033929;28;20118;-64
2021/06/03 08:42:50;;;;;;;4.70;3.50;;;;;;;;;;5050262;28;20382;-63
2021/06/03 08:45:19;;;;;;;4.63;3.30;;;;;;;;;;5050694;28;20144;-63
2021/06/03 08:47:47;;;;;;;4.85;3.22;;;;;;;;;;5049463;28;20570;-64
2021/06/03 08:50:15;;;;;;;9.90;3.60;;;;;;;;;;5047883;28;20107;-63
2021/06/03 08:52:44;;;;;;;8.25;3.60;;;;;;;;;;5030973;28;20042;-64
2021/06/03 08:56:13;;;;;;;5.15;3.78;;;;;;;;;;5026991;28;20081;-63
2021/06/03 08:58:02;;;;;;;4.68;3.58;;;;;;;;;;5029668;28;20050;-63
2021/06/03 09:00:30;;;;;;;5.70;3.42;;;;;;;;;;5030012;28;20098;-63
2021/06/03 09:02:58;;;;;;;5.60;3.33;;;;;;;;;;5029899;28;20088;-63
2021/06/03 09:05:27;;;;;;;4.35;3.60;;;;;;;;;;5030285;28;20108;-63
2021/06/03 09:07:57;;;;;;;3.40;3.10;;;;;;;;;;5030120;28;20081;-63
2021/06/03 09:10:30;;;;;;;4.53;3.70;;;;;;;;;;5029988;28;20132;-63
2021/06/03 09:13:07;;;;;;;6.22;3.40;;;;;;;;;;5031100;28;20140;-63
2021/06/03 09:15:35;;;;;;;6.05;3.50;;;;;;;;;;5029962;28;20128;-65
2021/06/03 09:18:08;;;;;;;5.40;3.30;;;;;;;;;;5030185;28;20507;-63
2021/06/03 09:20:36;;;;;;;4.10;3.65;;;;;;;;;;5030209;28;20136;-63
2021/06/03 09:23:05;;;;;;;3.80;3.10;;;;;;;;;;5030150;28;20081;-63
2021/06/03 09:25:35;;;;;;;3.65;3.28;;;;;;;;;;5029671;28;20132;-63
2021/06/03 09:28:33;;;;;;;4.63;3.22;;;;;;;;;;5029351;28;20540;-63
2021/06/03 09:31:02;;;;;;;5.30;3.42;;;;;;;;;;5007641;28;20048;-63
2021/06/03 09:33:41;;;;;;;5.05;3.65;;;;;;;;;;5024927;28;20136;-64
2021/06/03 09:36:10;;;;;;;5.35;2.83;;;;;;;;;;5029239;28;20041;-62
2021/06/03 09:38:50;;;;;;;5.13;3.63;;;;;;;;;;5029926;28;20485;-62
2021/06/03 09:41:18;;;;;;;6.50;3.50;;;;;;;;;;5029683;28;20053;-63
2021/06/03 09:43:46;;;;;;;6.18;3.40;;;;;;;;;;5030665;28;20128;-62
2021/06/03 09:46:14;;;;;;;7.43;3.60;;;;;;;;;;5030435;28;20045;-62
2021/06/03 09:48:44;;;;;;;7.65;3.58;;;;;;;;;;5030713;28;20049;-62
2021/06/03 09:51:18;;;;;;;3.70;3.03;;;;;;;;;;5040734;28;20480;-62
2021/06/03 09:53:55;;;;;;;4.22;3.58;;;;;;;;;;5049868;28;20061;-63
2021/06/03 09:56:25;;;;;;;7.07;3.63;;;;;;;;;;5029248;28;20053;-63
2021/06/03 09:58:53;;;;;;;6.10;3.15;;;;;;;;;;5030258;28;20101;-62
2021/06/03 10:01:38;;;;;;;6.43;4.45;;;;;;;;;;5032822;28;20133;-63
2021/06/03 10:04:07;;;;;;;4.68;3.47;;;;;;;;;;5034054;28;20056;-63
2021/06/03 10:07:12;;;;;;;6.43;3.47;;;;;;;;;;5033192;28;20459;-62
2021/06/03 10:09:56;;;;;;;5.47;3.90;;;;;;;;;;5011365;28;20137;-63
2021/06/03 10:12:28;;;;;;;4.20;3.40;;;;;;;;;;5011297;28;20050;-63
2021/06/03 10:14:57;;;;;;;7.40;3.80;;;;;;;;;;5024602;28;20071;-64
2021/06/03 10:17:27;;;;;;;5.35;3.20;;;;;;;;;;5034190;28;20057;-63
2021/06/03 10:19:57;;;;;;;6.28;3.38;;;;;;;;;;5033974;28;20084;-63
2021/06/03 10:22:26;;;;;;;3.97;3.60;;;;;;;;;;5033883;28;20057;-63
2021/06/03 10:25:04;;;;;;;5.25;3.60;;;;;;;;;;5033526;28;20477;-63
2021/06/03 10:27:33;;;;;;;6.03;3.47;;;;;;;;;;5032404;28;20088;-63
2021/06/03 10:30:04;;;;;;;4.13;2.78;;;;;;;;;;5033239;28;20053;-64
2021/06/03 10:32:33;;;;;;;4.30;3.10;;;;;;;;;;5033396;28;20061;-64
2021/06/03 10:35:02;;;;;;;4.43;3.28;;;;;;;;;;5032774;28;20099;-63
2021/06/03 10:37:32;;;;;;;5.93;3.08;;;;;;;;;;5038949;28;20052;-63
2021/06/03 10:40:00;;;;;;;3.65;3.00;;;;;;;;;;5052803;28;20477;-63
2021/06/03 10:42:30;;;;;;;3.88;2.88;;;;;;;;;;5052177;28;20053;-63
2021/06/03 10:44:58;;;;;;;5.70;3.47;;;;;;;;;;5052218;28;20501;-63
2021/06/03 10:47:26;;;;;;;5.68;3.05;;;;;;;;;;5052206;28;20064;-63
2021/06/03 10:49:55;;;;;;;4.55;3.30;;;;;;;;;;5053041;28;20053;-63
2021/06/03 10:52:23;;;;;;;4.60;2.90;;;;;;;;;;5031984;28;20053;-64
2021/06/03 10:54:52;;;;;;;4.32;3.63;;;;;;;;;;5032203;28;20045;-64
2021/06/03 10:57:21;;;;;;;5.20;3.53;;;;;;;;;;5031765;28;20052;-63
2021/06/03 10:59:52;;;;;;;5.05;3.58;;;;;;;;;;5033020;28;20107;-63
2021/06/03 11:02:20;;;;;;;4.53;3.58;;;;;;;;;;5030659;28;20131;-63
2021/06/03 11:04:48;;;;;;;3.33;3.00;;;;;;;;;;5031248;28;20060;-64
2021/06/03 11:07:34;;;;;;;5.43;4.10;;;;;;;;;;5031537;28;20045;-63
2021/06/03 11:10:22;;;;;;;5.47;3.08;;;;;;;;;;5032457;28;20049;-63
2021/06/03 11:13:10;;;;;;;7.65;3.53;;;;;;;;;;5030857;28;20134;-63
2021/06/03 11:15:53;;;;;;;4.03;2.80;;;;;;;;;;5032987;28;20141;-63
2021/06/03 11:18:22;;;;;;;5.57;3.83;;;;;;;;;;5031644;28;20053;-63
2021/06/03 11:20:50;;;;;;;5.90;3.17;;;;;;;;;;5032394;28;20046;-63
2021/06/03 11:23:36;;;;;;;3.90;3.13;;;;;;;;;;5032164;28;20060;-63
2021/06/03 11:26:05;;;;;;;5.70;3.83;;;;;;;;;;5031591;28;20080;-64
2021/06/03 11:28:34;;;;;;;6.68;3.15;;;;;;;;;;5031570;28;20065;-63
2021/06/03 11:31:17;;;;;;;6.05;3.35;;;;;;;;;;5031655;28;20140;-64
2021/06/03 11:34:00;;;;;;;4.97;3.33;;;;;;;;;;5031886;28;20056;-63
2021/06/03 11:36:30;;;;;;;5.97;3.20;;;;;;;;;;5030924;28;20075;-63
2021/06/03 11:38:58;;;;;;;4.68;3.10;;;;;;;;;;5032271;28;20045;-64
2021/06/03 11:41:37;;;;;;;4.22;3.38;;;;;;;;;;5043851;28;20484;-63
2021/06/03 11:44:09;;;;;;;5.97;3.80;;;;;;;;;;5031975;28;20050;-63
2021/06/03 11:46:55;;;;;;;5.03;2.83;;;;;;;;;;5031100;28;20051;-63
2021/06/03 11:49:34;;;;;;;4.55;3.05;;;;;;;;;;5031912;28;20045;-63
2021/06/03 11:52:11;;;;;;;3.22;2.92;;;;;;;;;;5031318;28;20049;-63
2021/06/03 11:54:56;;;;;;;5.57;3.33;;;;;;;;;;5031051;28;20084;-63
2021/06/03 11:57:25;;;;;;;4.18;2.83;;;;;;;;;;5031340;28;20124;-63
2021/06/03 12:00:00;;;;;;;5.03;3.30;;;;;;;;;;5031781;28;20136;-63
2021/06/03 12:02:29;;;;;;;5.78;2.75;;;;;;;;;;5030909;28;20144;-63
2021/06/03 12:05:17;;;;;;;4.78;3.20;;;;;;;;;;5031204;28;20053;-63
2021/06/03 12:07:48;;;;;;;4.57;2.65;;;;;;;;;;5031108;28;20099;-63
2021/06/03 12:10:17;;;;;;;6.43;3.00;;;;;;;;;;5031397;28;20390;-63
2021/06/03 12:12:45;;;;;;;3.13;2.83;;;;;;;;;;5031238;28;20095;-63
2021/06/03 12:15:17;;;;;;;5.95;2.72;;;;;;;;;;5031018;28;20425;-63
2021/06/03 12:17:45;;;;;;;4.20;3.10;;;;;;;;;;5031111;28;20115;-63
2021/06/03 12:20:15;;;;;;;4.18;2.78;;;;;;;;;;5033100;28;20460;-63
2021/06/03 12:22:43;;;;;;;5.32;2.28;;;;;;;;;;5032673;28;20115;-63
2021/06/03 12:25:12;;;;;;;7.47;2.78;;;;;;;;;;5032706;28;20088;-63
2021/06/03 12:27:41;;;;;;;6.00;2.55;;;;;;;;;;5030537;28;20073;-63
2021/06/03 12:30:14;;;;;;;3.85;2.60;;;;;;;;;;5030431;28;20049;-63
2021/06/03 12:32:43;;;;;;;6.70;2.67;;;;;;;;;;5030827;28;20046;-63
2021/06/03 12:35:11;;;;;;;5.95;2.67;;;;;;;;;;5029930;28;20089;-63
2021/06/03 12:37:39;;;;;;;3.70;2.85;;;;;;;;;;5030223;28;20120;-63
2021/06/03 12:40:08;;;;;;;6.05;2.63;;;;;;;;;;5030863;28;20132;-63
2021/06/03 12:43:03;;;;;;;5.05;2.35;;;;;;;;;;1932147;28;10022705;-63
2021/06/03 12:45:32;;;;;;;3.78;2.58;;;;;;;;;;3973896;28;10000946;-63
2021/06/03 12:48:00;;;;;;;4.32;2.67;;;;;;;;;;5025270;28;20489;-63
2021/06/03 12:50:28;;;;;;;3.50;2.45;;;;;;;;;;5030204;28;20119;-63
2021/06/03 12:52:56;;;;;;;3.58;2.63;;;;;;;;;;5030296;28;20334;-63
2021/06/03 12:55:26;;;;;;;4.97;2.55;;;;;;;;;;5030199;28;20072;-63
2021/06/03 12:57:55;;;;;;;5.40;2.88;;;;;;;;;;5029061;28;20068;-63
2021/06/03 13:00:26;;;;;;;5.03;2.50;;;;;;;;;;5010804;28;20046;-63
2021/06/03 13:02:53;;;;;;;3.28;2.22;;;;;;;;;;5010203;28;20055;-63
2021/06/03 13:05:23;;;;;;;3.92;2.20;;;;;;;;;;5010564;28;20093;-63
2021/06/03 13:07:51;;;;;;;2.92;2.42;;;;;;;;;;5019206;28;20073;-63
2021/06/03 13:10:20;;;;;;;5.78;2.50;;;;;;;;;;5029898;28;20080;-63
2021/06/03 13:12:50;;;;;;;2.58;2.20;;;;;;;;;;5029823;28;20085;-63
2021/06/03 13:15:18;;;;;;;4.88;2.97;;;;;;;;;;5030001;28;20080;-63
2021/06/03 13:17:53;;;;;;;5.22;2.92;;;;;;;;;;5029313;28;20519;-63
2021/06/03 13:20:24;;;;;;;5.57;2.50;;;;;;;;;;5030138;28;20064;-63
2021/06/03 13:22:52;;;;;;;3.70;2.70;;;;;;;;;;5029926;28;20103;-63
2021/06/03 13:25:21;;;;;;;4.30;2.72;;;;;;;;;;5029873;28;20144;-63
2021/06/03 13:27:49;;;;;;;3.95;3.08;;;;;;;;;;5029222;28;20481;-63
2021/06/03 13:30:19;;;;;;;6.45;2.75;;;;;;;;;;5029960;28;20045;-63
2021/06/03 13:32:49;;;;;;;2.85;2.20;;;;;;;;;;5029591;28;20103;-63
2021/06/03 13:35:18;;;;;;;3.55;3.10;;;;;;;;;;5028957;28;20046;-63
2021/06/03 13:38:05;;;;;;;3.88;2.75;;;;;;;;;;5029288;28;20049;-63
2021/06/03 13:40:33;;;;;;;6.65;2.75;;;;;;;;;;5029746;28;20132;-63
2021/06/03 13:43:04;;;;;;;5.53;2.50;;;;;;;;;;5029468;28;20081;-63
2021/06/03 13:45:32;;;;;;;3.45;2.50;;;;;;;;;;5028935;28;20418;-63
2021/06/03 13:48:02;;;;;;;4.95;2.72;;;;;;;;;;5028474;28;20523;-63
2021/06/03 13:50:33;;;;;;;3.60;2.60;;;;;;;;;;5038171;28;20427;-62
2021/06/03 13:53:02;;;;;;;4.57;2.67;;;;;;;;;;5052970;28;20052;-63
2021/06/03 13:55:31;;;;;;;4.07;2.63;;;;;;;;;;5043987;28;20056;-63
2021/06/03 13:58:00;;;;;;;4.07;2.58;;;;;;;;;;5035547;28;20084;-63
2021/06/03 14:00:36;;;;;;;2.63;2.22;;;;;;;;;;5030491;28;20067;-63
2021/06/03 14:03:13;;;;;;;3.55;2.05;;;;;;;;;;5029302;28;20053;-63
2021/06/03 14:05:43;;;;;;;3.40;2.40;;;;;;;;;;5029892;28;20076;-63
2021/06/03 14:08:13;;;;;;;3.83;2.20;;;;;;;;;;5028692;28;20049;-63
2021/06/03 14:10:59;;;;;;;3.35;2.30;;;;;;;;;;5029944;28;20129;-64
2021/06/03 14:13:27;;;;;;;3.50;2.60;;;;;;;;;;5029348;28;20045;-63
2021/06/03 14:15:55;;;;;;;5.30;2.38;;;;;;;;;;5029667;28;20065;-63
2021/06/03 14:18:26;;;;;;;3.20;2.20;;;;;;;;;;5028535;28;20081;-63
2021/06/03 14:20:54;;;;;;;3.13;2.28;;;;;;;;;;5028968;28;20056;-63
2021/06/03 14:23:36;;;;;;;3.95;2.30;;;;;;;;;;5029705;28;20057;-63
2021/06/03 14:26:12;;;;;;;3.70;2.45;;;;;;;;;;5029608;28;20104;-63
2021/06/03 14:28:40;;;;;;;4.07;2.30;;;;;;;;;;5026858;28;20119;-63
2021/06/03 14:31:07;;;;;;;5.13;2.47;;;;;;;;;;5029700;28;20050;-63
2021/06/03 14:33:37;;;;;;;3.65;2.75;;;;;;;;;;5029045;28;20057;-63
2021/06/03 14:36:05;;;;;;;3.53;2.63;;;;;;;;;;5029261;28;20457;-63
2021/06/03 14:38:35;;;;;;;2.72;2.20;;;;;;;;;;5028655;28;20068;-63
2021/06/03 14:41:03;;;;;;;3.80;2.13;;;;;;;;;;5038368;28;20057;-63
2021/06/03 14:43:35;;;;;;;3.70;2.70;;;;;;;;;;5049308;28;20115;-63
2021/06/03 14:46:05;;;;;;;4.05;2.22;;;;;;;;;;5049653;28;20096;-63
2021/06/03 14:48:35;;;;;;;3.58;2.40;;;;;;;;;;5051696;28;20107;-63
2021/06/03 14:51:05;;;;;;;8.32;2.70;;;;;;;;;;5032610;28;20501;-63
2021/06/03 14:53:33;;;;;;;3.28;2.40;;;;;;;;;;5032837;28;20136;-63
2021/06/03 14:56:03;;;;;;;3.72;2.63;;;;;;;;;;5033552;28;20405;-63
2021/06/03 14:58:31;;;;;;;3.83;2.38;;;;;;;;;;5030630;28;20132;-63
2021/06/03 15:01:00;;;;;;;7.97;2.50;;;;;;;;;;5033960;28;20057;-63